createdAt,value
2018-05-01T00:00:35.088Z,0
2018-05-01T00:01:35.390Z,0
2018-05-01T00:02:34.837Z,0
2018-05-01T00:03:34.855Z,0
2018-05-01T00:04:35.429Z,0
2018-05-01T00:05:35.471Z,0
2018-05-01T00:06:34.916Z,0
2018-05-01T00:07:35.501Z,0
2018-05-01T00:08:35.526Z,0
2018-05-01T00:09:35.628Z,0
2018-05-01T00:10:35.550Z,0
2018-05-01T00:11:35.107Z,0
2018-05-01T00:12:35.320Z,0
2018-05-01T00:13:35.620Z,0
2018-05-01T00:14:35.624Z,0
2018-05-01T00:15:35.399Z,0
2018-05-01T00:16:35.673Z,0
2018-05-01T00:17:35.727Z,0
2018-05-01T00:18:35.743Z,0
2018-05-01T00:19:35.486Z,0
2018-05-01T00:20:35.230Z,0
2018-05-01T00:21:35.534Z,0
2018-05-01T00:22:35.548Z,0
2018-05-01T00:23:35.575Z,0
2018-05-01T00:24:35.605Z,0
2018-05-01T00:25:35.316Z,0
2018-05-01T00:26:35.641Z,0
2018-05-01T00:27:35.653Z,0
2018-05-01T00:28:35.958Z,0
2018-05-01T00:29:35.704Z,0
2018-05-01T00:30:35.444Z,0
2018-05-01T00:31:35.746Z,0
2018-05-01T00:32:35.768Z,0
2018-05-01T00:33:35.776Z,0
2018-05-01T00:34:35.505Z,0
2018-05-01T00:35:35.513Z,0
2018-05-01T00:36:35.836Z,0
2018-05-01T00:37:36.126Z,0
2018-05-01T00:38:36.157Z,0
2018-05-01T00:39:36.190Z,0
2018-05-01T00:40:35.923Z,0
2018-05-01T00:41:35.937Z,0
2018-05-01T00:42:35.682Z,0
2018-05-01T00:43:36.250Z,0
2018-05-01T00:44:36.021Z,0
2018-05-01T00:45:36.008Z,0
2018-05-01T00:46:36.347Z,0
2018-05-01T00:47:35.785Z,0
2018-05-01T00:48:36.075Z,0
2018-05-01T00:49:36.090Z,0
2018-05-01T00:50:36.137Z,0
2018-05-01T00:51:36.735Z,0
2018-05-01T00:52:36.458Z,0
2018-05-01T00:53:36.467Z,0
2018-05-01T00:54:36.498Z,0
2018-05-01T00:55:35.952Z,0
2018-05-01T00:56:36.231Z,0
2018-05-01T00:57:35.996Z,0
2018-05-01T00:58:36.312Z,0
2018-05-01T00:59:36.027Z,0
2018-05-01T01:00:36.132Z,0
2018-05-01T01:01:36.351Z,0
2018-05-01T01:02:36.083Z,0
2018-05-01T01:03:36.404Z,0
2018-05-01T01:04:36.428Z,0
2018-05-01T01:05:36.494Z,0
2018-05-01T01:06:36.758Z,0
2018-05-01T01:07:36.469Z,0
2018-05-01T01:08:36.535Z,0
2018-05-01T01:09:36.818Z,0
2018-05-01T01:10:36.544Z,0
2018-05-01T01:11:36.872Z,0
2018-05-01T01:12:36.600Z,0
2018-05-01T01:13:36.895Z,0
2018-05-01T01:14:36.356Z,0
2018-05-01T01:15:36.635Z,0
2018-05-01T01:16:36.466Z,0
2018-05-01T01:17:36.700Z,0
2018-05-01T01:18:37.003Z,0
2018-05-01T01:19:36.737Z,0
2018-05-01T01:20:36.740Z,0
2018-05-01T01:21:36.518Z,0
2018-05-01T01:22:37.072Z,0
2018-05-01T01:23:37.096Z,0
2018-05-01T01:24:36.854Z,0
2018-05-01T01:25:37.148Z,0
2018-05-01T01:26:36.889Z,0
2018-05-01T01:27:36.893Z,0
2018-05-01T01:28:37.201Z,0
2018-05-01T01:29:36.947Z,0
2018-05-01T01:30:37.272Z,0
2018-05-01T01:31:37.266Z,0
2018-05-01T01:32:37.264Z,0
2018-05-01T01:33:37.288Z,0
2018-05-01T01:34:37.333Z,0
2018-05-01T01:35:37.090Z,0
2018-05-01T01:36:36.857Z,0
2018-05-01T01:37:37.117Z,0
2018-05-01T01:38:37.407Z,0
2018-05-01T01:39:37.432Z,0
2018-05-01T01:40:37.447Z,0
2018-05-01T01:41:37.479Z,0
2018-05-01T01:42:37.491Z,0
2018-05-01T01:43:37.504Z,0
2018-05-01T01:44:37.247Z,0
2018-05-01T01:45:38.400Z,0
2018-05-01T01:46:37.429Z,0
2018-05-01T01:47:38.276Z,0
2018-05-01T01:48:37.405Z,0
2018-05-01T01:49:37.493Z,0
2018-05-01T01:50:38.061Z,0
2018-05-01T01:51:38.041Z,0
2018-05-01T01:52:38.221Z,0
2018-05-01T01:53:37.928Z,0
2018-05-01T01:54:38.211Z,0
2018-05-01T01:55:38.046Z,0
2018-05-01T01:56:38.124Z,0
2018-05-01T01:57:38.550Z,0
2018-05-01T01:58:38.085Z,0
2018-05-01T01:59:38.451Z,0
2018-05-01T02:00:38.073Z,0
2018-05-01T02:01:38.346Z,0
2018-05-01T02:02:37.761Z,0
2018-05-01T02:03:38.061Z,0
2018-05-01T02:04:38.547Z,0
2018-05-01T02:05:38.591Z,0
2018-05-01T02:06:38.536Z,0
2018-05-01T02:07:38.555Z,0
2018-05-01T02:08:38.597Z,0
2018-05-01T02:09:38.514Z,0
2018-05-01T02:10:38.319Z,0
2018-05-01T02:11:38.289Z,0
2018-05-01T02:12:38.591Z,0
2018-05-01T02:13:38.139Z,0
2018-05-01T02:14:38.157Z,0
2018-05-01T02:15:38.175Z,0
2018-05-01T02:16:38.578Z,0
2018-05-01T02:17:38.290Z,0
2018-05-01T02:18:38.747Z,0
2018-05-01T02:19:38.692Z,0
2018-05-01T02:20:38.720Z,0
2018-05-01T02:21:38.488Z,0
2018-05-01T02:22:38.244Z,0
2018-05-01T02:23:38.287Z,0
2018-05-01T02:24:38.197Z,0
2018-05-01T02:25:38.805Z,0
2018-05-01T02:26:38.923Z,0
2018-05-01T02:27:38.790Z,0
2018-05-01T02:28:38.410Z,0
2018-05-01T02:29:38.899Z,0
2018-05-01T02:30:38.479Z,0
2018-05-01T02:31:38.323Z,0
2018-05-01T02:32:38.778Z,0
2018-05-01T02:33:38.286Z,0
2018-05-01T02:34:38.578Z,0
2018-05-01T02:35:38.711Z,0
2018-05-01T02:36:39.090Z,0
2018-05-01T02:37:38.640Z,0
2018-05-01T02:38:38.659Z,0
2018-05-01T02:39:38.079Z,0
2018-05-01T02:40:38.397Z,0
2018-05-01T02:41:38.690Z,0
2018-05-01T02:42:38.732Z,0
2018-05-01T02:43:38.741Z,0
2018-05-01T02:44:38.750Z,0
2018-05-01T02:45:38.486Z,0
2018-05-01T02:46:38.887Z,0
2018-05-01T02:47:38.829Z,0
2018-05-01T02:48:38.680Z,0
2018-05-01T02:49:39.402Z,0
2018-05-01T02:50:38.858Z,0
2018-05-01T02:51:38.674Z,0
2018-05-01T02:52:38.676Z,0
2018-05-01T02:53:38.660Z,0
2018-05-01T02:54:38.962Z,0
2018-05-01T02:55:38.727Z,0
2018-05-01T02:56:38.988Z,0
2018-05-01T02:57:39.013Z,0
2018-05-01T02:58:39.043Z,0
2018-05-01T02:59:39.057Z,0
2018-05-01T03:00:39.063Z,0
2018-05-01T03:01:39.087Z,0
2018-05-01T03:02:39.119Z,0
2018-05-01T03:03:39.129Z,0
2018-05-01T03:04:39.188Z,0
2018-05-01T03:05:38.877Z,0
2018-05-01T03:06:39.247Z,0
2018-05-01T03:07:39.202Z,0
2018-05-01T03:08:38.684Z,0
2018-05-01T03:09:38.705Z,0
2018-05-01T03:10:39.281Z,0
2018-05-01T03:11:39.368Z,0
2018-05-01T03:12:39.009Z,0
2018-05-01T03:13:39.349Z,0
2018-05-01T03:14:39.160Z,0
2018-05-01T03:15:39.379Z,0
2018-05-01T03:16:39.472Z,0
2018-05-01T03:17:39.404Z,0
2018-05-01T03:18:39.417Z,0
2018-05-01T03:19:39.175Z,0
2018-05-01T03:20:38.913Z,0
2018-05-01T03:21:39.494Z,0
2018-05-01T03:22:39.249Z,4
2018-05-01T03:23:39.536Z,4
2018-05-01T03:24:39.537Z,4
2018-05-01T03:25:39.552Z,0
2018-05-01T03:26:39.623Z,4
2018-05-01T03:27:39.658Z,4
2018-05-01T03:28:39.626Z,0
2018-05-01T03:29:39.636Z,4
2018-05-01T03:30:39.661Z,4
2018-05-01T03:31:39.799Z,8
2018-05-01T03:32:39.442Z,8
2018-05-01T03:33:39.178Z,4
2018-05-01T03:34:39.736Z,4
2018-05-01T03:35:39.497Z,8
2018-05-01T03:36:39.816Z,8
2018-05-01T03:37:39.810Z,8
2018-05-01T03:38:39.815Z,8
2018-05-01T03:39:39.851Z,8
2018-05-01T03:40:39.855Z,8
2018-05-01T03:41:39.876Z,12
2018-05-01T03:42:39.911Z,12
2018-05-01T03:43:39.936Z,16
2018-05-01T03:44:39.953Z,16
2018-05-01T03:45:39.986Z,16
2018-05-01T03:46:39.987Z,20
2018-05-01T03:47:40.008Z,24
2018-05-01T03:48:40.005Z,20
2018-05-01T03:49:39.756Z,24
2018-05-01T03:50:40.053Z,24
2018-05-01T03:51:39.826Z,24
2018-05-01T03:52:40.118Z,28
2018-05-01T03:53:40.120Z,36
2018-05-01T03:54:40.145Z,36
2018-05-01T03:55:40.300Z,40
2018-05-01T03:56:39.882Z,44
2018-05-01T03:57:40.212Z,44
2018-05-01T03:58:40.209Z,52
2018-05-01T03:59:40.241Z,56
2018-05-01T04:00:39.698Z,60
2018-05-01T04:01:39.714Z,64
2018-05-01T04:02:40.316Z,64
2018-05-01T04:03:40.298Z,68
2018-05-01T04:04:40.327Z,72
2018-05-01T04:05:40.093Z,72
2018-05-01T04:06:40.375Z,80
2018-05-01T04:07:40.402Z,80
2018-05-01T04:08:40.149Z,88
2018-05-01T04:09:40.142Z,96
2018-05-01T04:10:40.165Z,96
2018-05-01T04:11:40.258Z,96
2018-05-01T04:12:40.498Z,96
2018-05-01T04:13:40.518Z,100
2018-05-01T04:14:40.247Z,104
2018-05-01T04:15:40.933Z,116
2018-05-01T04:16:41.428Z,128
2018-05-01T04:17:41.260Z,132
2018-05-01T04:18:41.610Z,132
2018-05-01T04:19:40.063Z,144
2018-05-01T04:20:41.290Z,140
2018-05-01T04:21:41.363Z,140
2018-05-01T04:22:41.240Z,128
2018-05-01T04:23:41.561Z,136
2018-05-01T04:24:41.144Z,136
2018-05-01T04:25:40.726Z,156
2018-05-01T04:26:41.340Z,140
2018-05-01T04:27:41.480Z,140
2018-05-01T04:28:41.710Z,132
2018-05-01T04:29:41.014Z,124
2018-05-01T04:30:41.978Z,128
2018-05-01T04:31:41.295Z,140
2018-05-01T04:32:41.796Z,144
2018-05-01T04:33:41.525Z,140
2018-05-01T04:34:41.576Z,144
2018-05-01T04:35:41.517Z,144
2018-05-01T04:36:41.739Z,140
2018-05-01T04:37:42.153Z,128
2018-05-01T04:38:41.955Z,124
2018-05-01T04:39:41.637Z,124
2018-05-01T04:40:41.825Z,124
2018-05-01T04:41:41.273Z,128
2018-05-01T04:42:42.097Z,128
2018-05-01T04:43:41.689Z,128
2018-05-01T04:44:41.831Z,136
2018-05-01T04:45:41.828Z,136
2018-05-01T04:46:41.909Z,148
2018-05-01T04:47:42.237Z,168
2018-05-01T04:48:41.360Z,196
2018-05-01T04:49:41.744Z,252
2018-05-01T04:50:41.860Z,304
2018-05-01T04:51:41.566Z,340
2018-05-01T04:52:41.740Z,364
2018-05-01T04:53:41.294Z,388
2018-05-01T04:54:41.028Z,364
2018-05-01T04:55:41.056Z,364
2018-05-01T04:56:41.086Z,360
2018-05-01T04:57:41.111Z,364
2018-05-01T04:58:42.002Z,372
2018-05-01T04:59:41.128Z,332
2018-05-01T05:00:41.163Z,332
2018-05-01T05:01:41.465Z,336
2018-05-01T05:02:41.451Z,328
2018-05-01T05:03:41.202Z,296
2018-05-01T05:04:41.217Z,280
2018-05-01T05:05:41.516Z,276
2018-05-01T05:06:41.271Z,280
2018-05-01T05:07:41.605Z,288
2018-05-01T05:08:41.291Z,288
2018-05-01T05:09:41.440Z,256
2018-05-01T05:10:41.638Z,248
2018-05-01T05:11:41.634Z,240
2018-05-01T05:12:41.377Z,216
2018-05-01T05:13:41.686Z,196
2018-05-01T05:14:41.435Z,228
2018-05-01T05:15:41.825Z,204
2018-05-01T05:16:41.749Z,200
2018-05-01T05:17:41.529Z,204
2018-05-01T05:18:41.507Z,216
2018-05-01T05:19:41.817Z,232
2018-05-01T05:20:41.827Z,252
2018-05-01T05:21:41.846Z,296
2018-05-01T05:22:41.335Z,304
2018-05-01T05:23:41.879Z,284
2018-05-01T05:24:41.309Z,260
2018-05-01T05:25:41.941Z,264
2018-05-01T05:26:41.936Z,336
2018-05-01T05:27:41.438Z,356
2018-05-01T05:28:41.715Z,296
2018-05-01T05:29:41.970Z,304
2018-05-01T05:30:41.715Z,252
2018-05-01T05:31:42.040Z,232
2018-05-01T05:32:41.785Z,236
2018-05-01T05:33:42.040Z,224
2018-05-01T05:34:42.096Z,244
2018-05-01T05:35:42.100Z,248
2018-05-01T05:36:42.142Z,252
2018-05-01T05:37:41.857Z,260
2018-05-01T05:38:42.174Z,244
2018-05-01T05:39:42.177Z,220
2018-05-01T05:40:41.912Z,208
2018-05-01T05:41:42.211Z,196
2018-05-01T05:42:41.988Z,192
2018-05-01T05:43:42.280Z,188
2018-05-01T05:44:42.347Z,196
2018-05-01T05:45:42.041Z,200
2018-05-01T05:46:42.326Z,220
2018-05-01T05:47:42.064Z,228
2018-05-01T05:48:42.348Z,240
2018-05-01T05:49:42.386Z,236
2018-05-01T05:50:42.106Z,228
2018-05-01T05:51:42.159Z,228
2018-05-01T05:52:42.127Z,216
2018-05-01T05:53:42.173Z,208
2018-05-01T05:54:42.194Z,208
2018-05-01T05:55:42.491Z,208
2018-05-01T05:56:42.527Z,200
2018-05-01T05:57:42.261Z,204
2018-05-01T05:58:41.717Z,200
2018-05-01T05:59:42.568Z,204
2018-05-01T06:00:42.596Z,196
2018-05-01T06:01:42.628Z,196
2018-05-01T06:02:42.335Z,208
2018-05-01T06:03:42.647Z,208
2018-05-01T06:04:42.690Z,204
2018-05-01T06:05:42.684Z,204
2018-05-01T06:06:42.412Z,216
2018-05-01T06:07:42.599Z,204
2018-05-01T06:08:42.971Z,204
2018-05-01T06:09:42.798Z,200
2018-05-01T06:10:42.776Z,208
2018-05-01T06:11:42.809Z,216
2018-05-01T06:12:42.529Z,224
2018-05-01T06:13:42.438Z,228
2018-05-01T06:14:42.598Z,228
2018-05-01T06:15:42.898Z,252
2018-05-01T06:16:42.889Z,248
2018-05-01T06:17:42.652Z,244
2018-05-01T06:18:42.658Z,244
2018-05-01T06:19:42.976Z,252
2018-05-01T06:20:42.710Z,248
2018-05-01T06:21:42.694Z,236
2018-05-01T06:22:42.524Z,232
2018-05-01T06:23:42.756Z,228
2018-05-01T06:24:43.048Z,228
2018-05-01T06:25:43.101Z,228
2018-05-01T06:26:43.081Z,240
2018-05-01T06:27:42.599Z,248
2018-05-01T06:28:42.837Z,248
2018-05-01T06:29:43.149Z,252
2018-05-01T06:30:43.180Z,260
2018-05-01T06:31:43.182Z,256
2018-05-01T06:32:43.195Z,256
2018-05-01T06:33:42.947Z,248
2018-05-01T06:34:43.254Z,244
2018-05-01T06:35:42.985Z,240
2018-05-01T06:36:43.289Z,240
2018-05-01T06:37:43.321Z,240
2018-05-01T06:38:43.034Z,236
2018-05-01T06:39:43.095Z,240
2018-05-01T06:40:43.088Z,248
2018-05-01T06:41:43.376Z,256
2018-05-01T06:42:43.404Z,264
2018-05-01T06:43:43.422Z,288
2018-05-01T06:44:42.858Z,328
2018-05-01T06:45:43.166Z,400
2018-05-01T06:46:43.477Z,428
2018-05-01T06:47:43.482Z,524
2018-05-01T06:48:43.518Z,492
2018-05-01T06:49:42.965Z,744
2018-05-01T06:50:43.333Z,676
2018-05-01T06:51:43.551Z,748
2018-05-01T06:52:43.306Z,768
2018-05-01T06:53:43.620Z,472
2018-05-01T06:54:43.057Z,632
2018-05-01T06:55:43.395Z,728
2018-05-01T06:56:43.114Z,860
2018-05-01T06:57:43.119Z,1008
2018-05-01T06:58:43.120Z,1036
2018-05-01T06:59:43.439Z,1204
2018-05-01T07:00:43.478Z,1368
2018-05-01T07:01:43.471Z,1480
2018-05-01T07:02:43.493Z,1508
2018-05-01T07:03:43.515Z,1276
2018-05-01T07:04:43.915Z,1264
2018-05-01T07:05:43.834Z,1248
2018-05-01T07:06:43.299Z,1456
2018-05-01T07:07:43.313Z,1428
2018-05-01T07:08:43.876Z,1236
2018-05-01T07:09:43.619Z,1180
2018-05-01T07:10:43.518Z,1176
2018-05-01T07:11:43.923Z,1224
2018-05-01T07:12:43.676Z,1256
2018-05-01T07:13:43.683Z,1368
2018-05-01T07:14:43.439Z,1484
2018-05-01T07:15:44.034Z,1512
2018-05-01T07:16:43.775Z,1576
2018-05-01T07:17:44.048Z,1588
2018-05-01T07:18:43.777Z,1652
2018-05-01T07:19:44.085Z,1596
2018-05-01T07:20:44.134Z,1480
2018-05-01T07:21:44.112Z,1464
2018-05-01T07:22:43.870Z,1600
2018-05-01T07:23:43.966Z,1708
2018-05-01T07:24:44.219Z,1772
2018-05-01T07:25:44.200Z,1724
2018-05-01T07:26:43.972Z,1788
2018-05-01T07:27:43.963Z,1784
2018-05-01T07:28:44.037Z,1648
2018-05-01T07:29:44.006Z,1616
2018-05-01T07:30:44.018Z,1632
2018-05-01T07:31:44.328Z,1732
2018-05-01T07:32:44.065Z,1704
2018-05-01T07:33:44.130Z,1756
2018-05-01T07:34:44.402Z,1864
2018-05-01T07:35:44.295Z,1980
2018-05-01T07:36:44.439Z,2020
2018-05-01T07:37:44.482Z,1948
2018-05-01T07:38:44.498Z,1936
2018-05-01T07:39:44.225Z,2032
2018-05-01T07:40:44.502Z,2008
2018-05-01T07:41:44.370Z,2024
2018-05-01T07:42:44.255Z,2112
2018-05-01T07:43:44.631Z,2032
2018-05-01T07:44:44.324Z,1996
2018-05-01T07:45:44.333Z,2044
2018-05-01T07:46:44.615Z,2048
2018-05-01T07:47:44.365Z,2024
2018-05-01T07:48:44.634Z,1996
2018-05-01T07:49:44.397Z,2048
2018-05-01T07:50:44.694Z,2104
2018-05-01T07:51:44.711Z,2164
2018-05-01T07:52:44.727Z,2196
2018-05-01T07:53:44.755Z,2200
2018-05-01T07:54:44.478Z,2248
2018-05-01T07:55:44.513Z,2308
2018-05-01T07:56:44.260Z,2316
2018-05-01T07:57:44.815Z,2296
2018-05-01T07:58:44.919Z,2288
2018-05-01T07:59:44.586Z,2280
2018-05-01T08:00:44.886Z,2312
2018-05-01T08:01:44.359Z,2292
2018-05-01T08:02:44.926Z,2324
2018-05-01T08:03:45.071Z,2420
2018-05-01T08:04:44.705Z,2492
2018-05-01T08:05:44.978Z,2468
2018-05-01T08:06:45.013Z,2440
2018-05-01T08:07:45.049Z,2428
2018-05-01T08:08:45.112Z,2424
2018-05-01T08:09:45.064Z,2460
2018-05-01T08:10:45.109Z,2436
2018-05-01T08:11:45.343Z,2364
2018-05-01T08:12:45.605Z,2400
2018-05-01T08:13:47.888Z,2412
2018-05-01T08:14:46.401Z,2460
2018-05-01T08:15:45.584Z,2516
2018-05-01T08:16:45.637Z,2532
2018-05-01T08:17:46.738Z,2548
2018-05-01T08:19:00.131Z,2564
2018-05-01T08:19:46.145Z,2568
2018-05-01T08:20:46.133Z,2528
2018-05-01T08:21:45.803Z,2520
2018-05-01T08:22:45.925Z,2484
2018-05-01T08:23:46.685Z,2460
2018-05-01T08:24:45.783Z,2460
2018-05-01T08:25:46.046Z,2472
2018-05-01T08:26:46.845Z,2380
2018-05-01T08:27:46.718Z,2256
2018-05-01T08:28:46.948Z,2096
2018-05-01T08:29:47.229Z,1928
2018-05-01T08:30:45.431Z,1628
2018-05-01T08:31:46.413Z,1168
2018-05-01T08:32:47.099Z,836
2018-05-01T08:33:46.927Z,732
2018-05-01T08:34:46.141Z,580
2018-05-01T08:35:45.963Z,512
2018-05-01T08:36:47.272Z,580
2018-05-01T08:37:45.819Z,452
2018-05-01T08:38:45.653Z,544
2018-05-01T08:39:45.497Z,544
2018-05-01T08:40:45.720Z,544
2018-05-01T08:41:45.725Z,552
2018-05-01T08:42:45.455Z,556
2018-05-01T08:43:45.774Z,564
2018-05-01T08:44:45.785Z,572
2018-05-01T08:45:45.521Z,576
2018-05-01T08:46:45.806Z,592
2018-05-01T08:47:45.820Z,600
2018-05-01T08:48:45.289Z,608
2018-05-01T08:49:45.941Z,616
2018-05-01T08:50:45.924Z,624
2018-05-01T08:51:45.653Z,632
2018-05-01T08:52:45.941Z,648
2018-05-01T08:53:45.975Z,652
2018-05-01T08:54:45.999Z,648
2018-05-01T08:55:46.040Z,624
2018-05-01T08:56:45.753Z,644
2018-05-01T08:57:46.063Z,652
2018-05-01T08:58:45.773Z,656
2018-05-01T08:59:46.146Z,664
2018-05-01T09:00:46.113Z,680
2018-05-01T09:01:46.114Z,688
2018-05-01T09:02:46.144Z,692
2018-05-01T09:03:45.910Z,700
2018-05-01T09:04:46.196Z,624
2018-05-01T09:05:45.646Z,676
2018-05-01T09:06:45.970Z,704
2018-05-01T09:07:46.243Z,712
2018-05-01T09:08:45.990Z,716
2018-05-01T09:09:46.297Z,716
2018-05-01T09:10:46.029Z,724
2018-05-01T09:11:46.052Z,728
2018-05-01T09:12:46.087Z,736
2018-05-01T09:13:46.101Z,740
2018-05-01T09:14:46.140Z,748
2018-05-01T09:15:46.416Z,756
2018-05-01T09:16:46.160Z,764
2018-05-01T09:17:46.367Z,772
2018-05-01T09:18:46.217Z,780
2018-05-01T09:19:46.572Z,436
2018-05-01T09:20:46.225Z,832
2018-05-01T09:21:46.512Z,800
2018-05-01T09:22:46.562Z,808
2018-05-01T09:23:46.545Z,808
2018-05-01T09:24:46.315Z,812
2018-05-01T09:25:46.043Z,820
2018-05-01T09:26:46.334Z,828
2018-05-01T09:27:46.668Z,856
2018-05-01T09:28:46.672Z,856
2018-05-01T09:29:46.680Z,840
2018-05-01T09:30:46.454Z,844
2018-05-01T09:31:46.467Z,848
2018-05-01T09:32:46.752Z,860
2018-05-01T09:33:46.755Z,872
2018-05-01T09:34:46.826Z,876
2018-05-01T09:35:46.544Z,880
2018-05-01T09:36:46.862Z,888
2018-05-01T09:37:46.590Z,896
2018-05-01T09:38:46.872Z,896
2018-05-01T09:39:46.960Z,904
2018-05-01T09:40:46.637Z,912
2018-05-01T09:41:46.966Z,920
2018-05-01T09:42:46.696Z,928
2018-05-01T09:43:46.698Z,940
2018-05-01T09:44:46.757Z,948
2018-05-01T09:45:47.014Z,956
2018-05-01T09:46:47.049Z,960
2018-05-01T09:47:46.621Z,964
2018-05-01T09:48:47.102Z,968
2018-05-01T09:49:47.137Z,988
2018-05-01T09:50:47.129Z,1004
2018-05-01T09:51:46.872Z,1016
2018-05-01T09:52:46.602Z,1016
2018-05-01T09:53:47.198Z,1020
2018-05-01T09:54:46.999Z,1036
2018-05-01T09:55:47.229Z,1044
2018-05-01T09:56:47.271Z,1036
2018-05-01T09:57:47.278Z,1044
2018-05-01T09:58:47.313Z,1052
2018-05-01T09:59:47.314Z,1056
2018-05-01T10:00:47.312Z,1064
2018-05-01T10:01:47.281Z,1076
2018-05-01T10:02:46.824Z,1084
2018-05-01T10:03:47.408Z,1092
2018-05-01T10:04:47.401Z,1092
2018-05-01T10:05:47.155Z,1100
2018-05-01T10:06:46.911Z,1104
2018-05-01T10:07:47.192Z,1112
2018-05-01T10:08:47.233Z,1120
2018-05-01T10:09:47.515Z,1124
2018-05-01T10:10:47.571Z,1128
2018-05-01T10:11:47.567Z,1136
2018-05-01T10:12:47.624Z,1144
2018-05-01T10:13:47.606Z,1164
2018-05-01T10:14:47.625Z,1172
2018-05-01T10:15:47.647Z,1180
2018-05-01T10:16:47.110Z,1184
2018-05-01T10:17:47.718Z,1184
2018-05-01T10:18:47.709Z,1196
2018-05-01T10:19:47.759Z,1204
2018-05-01T10:20:47.509Z,1220
2018-05-01T10:21:47.777Z,1220
2018-05-01T10:22:47.521Z,1228
2018-05-01T10:23:47.553Z,1252
2018-05-01T10:24:47.618Z,1256
2018-05-01T10:25:47.889Z,1268
2018-05-01T10:26:47.926Z,1272
2018-05-01T10:27:47.891Z,1280
2018-05-01T10:28:47.862Z,1292
2018-05-01T10:29:47.945Z,1300
2018-05-01T10:30:47.697Z,1300
2018-05-01T10:31:48.010Z,1308
2018-05-01T10:32:47.829Z,1328
2018-05-01T10:33:48.039Z,1336
2018-05-01T10:34:47.807Z,1348
2018-05-01T10:35:48.111Z,1352
2018-05-01T10:36:47.847Z,1356
2018-05-01T10:37:48.160Z,1372
2018-05-01T10:38:48.276Z,1380
2018-05-01T10:39:47.708Z,1392
2018-05-01T10:40:47.934Z,1400
2018-05-01T10:41:47.946Z,1404
2018-05-01T10:42:47.975Z,1420
2018-05-01T10:43:47.993Z,1428
2018-05-01T10:44:48.101Z,1440
2018-05-01T10:45:48.161Z,1432
2018-05-01T10:46:48.068Z,1456
2018-05-01T10:47:48.348Z,1464
2018-05-01T10:48:48.108Z,1468
2018-05-01T10:49:48.112Z,1476
2018-05-01T10:50:48.141Z,1480
2018-05-01T10:51:48.450Z,1476
2018-05-01T10:52:48.206Z,1480
2018-05-01T10:53:48.475Z,1492
2018-05-01T10:54:48.745Z,1500
2018-05-01T10:55:48.546Z,1516
2018-05-01T10:56:48.271Z,1516
2018-05-01T10:57:48.293Z,1528
2018-05-01T10:58:48.683Z,1548
2018-05-01T10:59:48.319Z,1556
2018-05-01T11:00:48.781Z,1552
2018-05-01T11:01:48.680Z,1552
2018-05-01T11:02:48.708Z,1560
2018-05-01T11:03:48.416Z,1568
2018-05-01T11:04:48.230Z,1576
2018-05-01T11:05:48.507Z,1584
2018-05-01T11:06:48.764Z,1592
2018-05-01T11:07:48.815Z,1600
2018-05-01T11:08:48.845Z,1608
2018-05-01T11:09:48.573Z,1616
2018-05-01T11:10:48.577Z,1652
2018-05-01T11:11:48.696Z,1788
2018-05-01T11:12:48.912Z,1672
2018-05-01T11:13:48.678Z,1604
2018-05-01T11:14:48.965Z,1696
2018-05-01T11:15:48.724Z,1716
2018-05-01T11:16:49.017Z,1816
2018-05-01T11:17:48.773Z,2024
2018-05-01T11:18:49.071Z,1908
2018-05-01T11:19:48.851Z,1844
2018-05-01T11:20:49.195Z,1816
2018-05-01T11:21:49.114Z,1736
2018-05-01T11:22:48.584Z,1752
2018-05-01T11:23:49.182Z,1876
2018-05-01T11:24:49.279Z,2424
2018-05-01T11:25:49.221Z,3056
2018-05-01T11:26:48.960Z,2196
2018-05-01T11:27:48.734Z,1356
2018-05-01T11:28:49.015Z,3132
2018-05-01T11:29:49.316Z,2656
2018-05-01T11:30:49.333Z,2488
2018-05-01T11:31:49.095Z,2004
2018-05-01T11:32:49.107Z,2156
2018-05-01T11:33:49.229Z,1908
2018-05-01T11:34:48.896Z,1896
2018-05-01T11:35:49.471Z,1948
2018-05-01T11:36:49.492Z,1940
2018-05-01T11:37:49.227Z,1880
2018-05-01T11:38:49.274Z,1888
2018-05-01T11:39:49.588Z,1920
2018-05-01T11:40:49.588Z,2224
2018-05-01T11:41:49.596Z,2192
2018-05-01T11:42:49.344Z,2232
2018-05-01T11:43:49.684Z,2200
2018-05-01T11:44:49.404Z,2108
2018-05-01T11:45:49.693Z,2784
2018-05-01T11:46:49.425Z,4196
2018-05-01T11:47:49.748Z,3320
2018-05-01T11:48:50.441Z,2256
2018-05-01T11:49:49.857Z,1504
2018-05-01T11:50:49.261Z,1928
2018-05-01T11:51:49.856Z,1628
2018-05-01T11:52:49.887Z,2060
2018-05-01T11:53:50.272Z,2000
2018-05-01T11:54:49.921Z,948
2018-05-01T11:55:49.946Z,1972
2018-05-01T11:56:49.702Z,1984
2018-05-01T11:57:50.143Z,2088
2018-05-01T11:58:50.011Z,2216
2018-05-01T11:59:50.099Z,2340
2018-05-01T12:00:50.093Z,2320
2018-05-01T12:01:50.086Z,3340
2018-05-01T12:02:50.280Z,3716
2018-05-01T12:03:50.177Z,3020
2018-05-01T12:04:50.157Z,2312
2018-05-01T12:05:50.201Z,2004
2018-05-01T12:06:50.209Z,2076
2018-05-01T12:07:50.246Z,2144
2018-05-01T12:08:49.966Z,1348
2018-05-01T12:09:50.285Z,2696
2018-05-01T12:10:49.765Z,1116
2018-05-01T12:11:50.355Z,1608
2018-05-01T12:12:49.821Z,2356
2018-05-01T12:13:50.391Z,2600
2018-05-01T12:14:50.407Z,2268
2018-05-01T12:15:50.137Z,2424
2018-05-01T12:16:49.928Z,3128
2018-05-01T12:17:50.517Z,1412
2018-05-01T12:18:50.522Z,1660
2018-05-01T12:19:50.558Z,3624
2018-05-01T12:20:50.292Z,3096
2018-05-01T12:21:50.053Z,2444
2018-05-01T12:22:50.319Z,1996
2018-05-01T12:23:50.851Z,1920
2018-05-01T12:24:50.714Z,1948
2018-05-01T12:25:50.723Z,1152
2018-05-01T12:26:50.757Z,1712
2018-05-01T12:27:50.743Z,2272
2018-05-01T12:28:50.489Z,2176
2018-05-01T12:29:50.504Z,2248
2018-05-01T12:30:50.535Z,2192
2018-05-01T12:31:50.864Z,1952
2018-05-01T12:32:50.300Z,2004
2018-05-01T12:33:50.927Z,1296
2018-05-01T12:34:50.897Z,2720
2018-05-01T12:35:50.960Z,2724
2018-05-01T12:36:51.277Z,2176
2018-05-01T12:37:50.721Z,1904
2018-05-01T12:38:51.020Z,1888
2018-05-01T12:39:51.058Z,1888
2018-05-01T12:40:51.071Z,1888
2018-05-01T12:41:51.107Z,1928
2018-05-01T12:42:51.124Z,2016
2018-05-01T12:43:50.867Z,2124
2018-05-01T12:44:51.170Z,2072
2018-05-01T12:45:50.906Z,1904
2018-05-01T12:46:51.244Z,1932
2018-05-01T12:47:50.983Z,2288
2018-05-01T12:48:50.998Z,2184
2018-05-01T12:49:51.011Z,1980
2018-05-01T12:50:51.331Z,2308
2018-05-01T12:51:51.363Z,1992
2018-05-01T12:52:51.370Z,1820
2018-05-01T12:53:51.685Z,1796
2018-05-01T12:54:51.450Z,1800
2018-05-01T12:55:51.179Z,1816
2018-05-01T12:56:51.207Z,1852
2018-05-01T12:57:50.947Z,1868
2018-05-01T12:58:51.542Z,960
2018-05-01T12:59:51.291Z,1524
2018-05-01T13:00:51.285Z,3204
2018-05-01T13:01:51.343Z,3704
2018-05-01T13:02:51.366Z,2424
2018-05-01T13:03:51.658Z,2124
2018-05-01T13:04:51.680Z,1940
2018-05-01T13:05:51.447Z,2008
2018-05-01T13:06:51.748Z,2156
2018-05-01T13:07:51.495Z,2108
2018-05-01T13:08:51.779Z,888
2018-05-01T13:09:51.815Z,2628
2018-05-01T13:10:51.858Z,3784
2018-05-01T13:11:51.598Z,3692
2018-05-01T13:12:51.901Z,2528
2018-05-01T13:13:51.651Z,2032
2018-05-01T13:14:51.697Z,1924
2018-05-01T13:15:51.985Z,1896
2018-05-01T13:16:52.013Z,1916
2018-05-01T13:17:51.738Z,1924
2018-05-01T13:18:52.037Z,1972
2018-05-01T13:19:52.050Z,1996
2018-05-01T13:20:52.194Z,1992
2018-05-01T13:21:52.140Z,1992
2018-05-01T13:22:52.160Z,1992
2018-05-01T13:23:51.919Z,1996
2018-05-01T13:24:51.925Z,2012
2018-05-01T13:25:51.949Z,2012
2018-05-01T13:26:51.994Z,2020
2018-05-01T13:27:52.009Z,2044
2018-05-01T13:28:52.027Z,2056
2018-05-01T13:29:52.334Z,2068
2018-05-01T13:30:52.356Z,2120
2018-05-01T13:31:52.127Z,2184
2018-05-01T13:32:52.452Z,2648
2018-05-01T13:33:52.454Z,3056
2018-05-01T13:34:52.468Z,2136
2018-05-01T13:35:52.509Z,2100
2018-05-01T13:36:52.226Z,2108
2018-05-01T13:37:52.407Z,2112
2018-05-01T13:38:52.302Z,2108
2018-05-01T13:39:52.598Z,2112
2018-05-01T13:40:52.713Z,2164
2018-05-01T13:41:52.408Z,2220
2018-05-01T13:42:52.680Z,2212
2018-05-01T13:43:52.441Z,2228
2018-05-01T13:44:52.455Z,2260
2018-05-01T13:45:52.483Z,2252
2018-05-01T13:46:52.508Z,2260
2018-05-01T13:47:52.529Z,2276
2018-05-01T13:48:52.002Z,2312
2018-05-01T13:49:52.882Z,2392
2018-05-01T13:50:52.627Z,2468